Time;durP1;ratioP1;P1;durP2;ratioP2;P2;SDS_P1;SDS_P2;PMS_P1;PMS_P2;Temp;Humidity;BMP_temperature;BMP_pressure;BME280_temperature;BME280_humidity;BME280_pressure;Samples;Min_cycle;Max_cycle;Signal;HPM_P1;HPM_P2
2022/07/17 00:00:43;;;;;;;8.10;3.70;;;;;;;;;;5020552;28;20024;-68
2022/07/17 00:03:14;;;;;;;6.03;3.90;;;;;;;;;;5024752;28;20275;-67
2022/07/17 00:05:40;;;;;;;7.78;3.65;;;;;;;;;;5015710;28;20041;-67
2022/07/17 00:08:06;;;;;;;14.55;4.70;;;;;;;;;;5026873;28;20025;-68
2022/07/17 00:10:32;;;;;;;14.68;4.43;;;;;;;;;;5025557;28;20045;-67
2022/07/17 00:12:57;;;;;;;9.45;3.35;;;;;;;;;;5023669;28;20363;-67
2022/07/17 00:15:22;;;;;;;10.63;3.80;;;;;;;;;;5019413;28;20204;-67
2022/07/17 00:17:48;;;;;;;11.10;5.47;;;;;;;;;;5024437;28;20140;-67
2022/07/17 00:20:13;;;;;;;12.63;4.53;;;;;;;;;;5031875;28;20422;-67
2022/07/17 00:22:38;;;;;;;11.30;5.33;;;;;;;;;;5019475;28;20548;-68
2022/07/17 00:25:04;;;;;;;11.25;4.68;;;;;;;;;;5015389;28;20388;-67
2022/07/17 00:27:29;;;;;;;9.13;4.30;;;;;;;;;;5008989;28;20029;-67
2022/07/17 00:29:55;;;;;;;8.00;3.67;;;;;;;;;;5012225;28;20030;-67
2022/07/17 00:32:20;;;;;;;8.45;3.83;;;;;;;;;;5018572;28;20021;-68
2022/07/17 00:34:45;;;;;;;7.82;3.90;;;;;;;;;;5018620;28;20514;-67
2022/07/17 00:37:10;;;;;;;13.48;4.05;;;;;;;;;;5016749;28;20025;-67
2022/07/17 00:39:35;;;;;;;8.67;3.80;;;;;;;;;;5020135;28;20038;-67
2022/07/17 00:42:01;;;;;;;7.30;3.78;;;;;;;;;;5021323;28;20270;-67
2022/07/17 00:44:26;;;;;;;11.30;4.50;;;;;;;;;;4998588;28;20038;-68
2022/07/17 00:46:51;;;;;;;10.10;3.70;;;;;;;;;;4993316;28;21638;-67
2022/07/17 00:49:17;;;;;;;9.15;3.88;;;;;;;;;;4997249;28;20437;-67
2022/07/17 00:51:42;;;;;;;10.68;3.47;;;;;;;;;;4998800;28;20386;-67
2022/07/17 00:54:07;;;;;;;7.00;3.73;;;;;;;;;;4996612;28;20376;-67
2022/07/17 00:56:33;;;;;;;15.07;4.32;;;;;;;;;;5003855;28;20283;-67
2022/07/17 00:58:59;;;;;;;11.10;4.00;;;;;;;;;;5002612;28;20159;-67
2022/07/17 01:01:24;;;;;;;5.93;3.65;;;;;;;;;;5002187;28;20121;-67
2022/07/17 01:03:49;;;;;;;8.57;4.20;;;;;;;;;;5002930;28;20434;-67
2022/07/17 01:06:14;;;;;;;11.45;4.35;;;;;;;;;;5008060;28;20034;-68
2022/07/17 01:08:39;;;;;;;16.20;4.20;;;;;;;;;;5001111;28;20164;-67
2022/07/17 01:11:05;;;;;;;7.90;4.15;;;;;;;;;;4997599;28;20267;-67
2022/07/17 01:13:31;;;;;;;5.38;3.72;;;;;;;;;;5000280;28;20034;-67
2022/07/17 01:15:56;;;;;;;10.10;4.25;;;;;;;;;;5000987;28;20030;-67
2022/07/17 01:18:22;;;;;;;9.50;4.93;;;;;;;;;;4998966;28;20088;-67
2022/07/17 01:20:47;;;;;;;19.17;4.80;;;;;;;;;;4998625;28;20018;-67
2022/07/17 01:23:13;;;;;;;17.20;6.63;;;;;;;;;;4999826;28;20125;-67
2022/07/17 01:25:39;;;;;;;19.27;4.70;;;;;;;;;;4998695;28;20499;-67
2022/07/17 01:28:04;;;;;;;10.73;4.15;;;;;;;;;;4997415;28;20034;-67
2022/07/17 01:30:29;;;;;;;9.23;4.38;;;;;;;;;;5000699;28;20045;-67
2022/07/17 01:32:54;;;;;;;9.82;4.38;;;;;;;;;;5003787;28;20026;-67
2022/07/17 01:35:20;;;;;;;7.38;4.40;;;;;;;;;;4994855;28;20022;-67
2022/07/17 01:37:45;;;;;;;14.50;3.70;;;;;;;;;;5003766;28;20029;-67
2022/07/17 01:40:14;;;;;;;11.32;5.80;;;;;;;;;;5002984;28;20045;-67
2022/07/17 01:42:41;;;;;;;12.02;4.90;;;;;;;;;;5006801;28;20030;-67
2022/07/17 01:45:07;;;;;;;9.02;3.80;;;;;;;;;;5002608;28;20029;-67
2022/07/17 01:47:32;;;;;;;7.88;4.57;;;;;;;;;;5004328;28;20026;-67
2022/07/17 01:49:57;;;;;;;7.93;4.25;;;;;;;;;;5009280;28;20486;-67
2022/07/17 01:52:24;;;;;;;15.98;5.45;;;;;;;;;;5013521;28;20523;-67
2022/07/17 01:54:49;;;;;;;18.17;5.47;;;;;;;;;;5005480;28;20022;-67
2022/07/17 01:57:14;;;;;;;13.32;5.03;;;;;;;;;;5004529;28;20072;-67
2022/07/17 01:59:40;;;;;;;13.82;5.07;;;;;;;;;;5002325;28;20037;-67
2022/07/17 02:02:05;;;;;;;11.63;5.65;;;;;;;;;;5005294;28;20029;-67
2022/07/17 02:04:31;;;;;;;15.43;5.30;;;;;;;;;;5004858;28;20037;-67
2022/07/17 02:06:57;;;;;;;9.98;4.65;;;;;;;;;;4999973;28;20030;-67
2022/07/17 02:09:22;;;;;;;11.43;5.40;;;;;;;;;;5003340;28;20044;-67
2022/07/17 02:11:47;;;;;;;9.65;4.45;;;;;;;;;;5005111;28;20456;-67
2022/07/17 02:14:13;;;;;;;15.80;5.45;;;;;;;;;;5004242;28;20018;-67
2022/07/17 02:16:38;;;;;;;9.47;5.00;;;;;;;;;;5002752;28;20045;-67
2022/07/17 02:19:03;;;;;;;15.27;5.27;;;;;;;;;;5002764;28;20291;-67
2022/07/17 02:21:28;;;;;;;22.27;6.60;;;;;;;;;;5003297;28;21021;-67
2022/07/17 02:23:53;;;;;;;10.40;4.80;;;;;;;;;;5005470;28;20276;-67
2022/07/17 02:26:18;;;;;;;6.50;4.30;;;;;;;;;;5001106;28;21010;-67
2022/07/17 02:28:44;;;;;;;7.90;4.03;;;;;;;;;;5004689;28;20279;-67
2022/07/17 02:31:09;;;;;;;9.17;4.60;;;;;;;;;;5004985;28;21368;-67
2022/07/17 02:33:34;;;;;;;19.77;5.43;;;;;;;;;;5003194;28;20307;-67
2022/07/17 02:36:01;;;;;;;11.87;4.60;;;;;;;;;;5000321;28;20348;-67
2022/07/17 02:38:26;;;;;;;15.02;5.20;;;;;;;;;;5008107;28;20289;-67
2022/07/17 02:40:51;;;;;;;14.63;5.13;;;;;;;;;;5004192;28;20572;-67
2022/07/17 02:43:16;;;;;;;20.13;5.10;;;;;;;;;;5004100;28;20279;-67
2022/07/17 02:45:41;;;;;;;9.80;5.45;;;;;;;;;;4999856;28;20341;-67
2022/07/17 02:48:06;;;;;;;16.55;5.65;;;;;;;;;;5004781;28;20030;-67
2022/07/17 02:50:32;;;;;;;8.83;4.40;;;;;;;;;;5000781;28;20057;-67
2022/07/17 02:52:57;;;;;;;9.00;4.43;;;;;;;;;;5003782;28;20314;-67
2022/07/17 02:55:22;;;;;;;19.73;5.05;;;;;;;;;;4999440;28;20295;-67
2022/07/17 02:57:47;;;;;;;10.15;5.03;;;;;;;;;;5003217;28;20033;-67
2022/07/17 03:00:15;;;;;;;13.20;5.10;;;;;;;;;;5007166;28;20120;-68
2022/07/17 03:02:41;;;;;;;13.10;4.90;;;;;;;;;;5002618;28;20283;-67
2022/07/17 03:05:06;;;;;;;9.73;4.60;;;;;;;;;;5009167;28;20036;-67
2022/07/17 03:07:31;;;;;;;12.13;4.72;;;;;;;;;;5003834;28;20034;-67
2022/07/17 03:09:56;;;;;;;14.50;4.93;;;;;;;;;;4996132;28;20028;-67
2022/07/17 03:12:22;;;;;;;14.25;6.30;;;;;;;;;;4998499;28;20284;-67
2022/07/17 03:14:47;;;;;;;13.90;5.70;;;;;;;;;;5005529;28;20077;-68
2022/07/17 03:17:12;;;;;;;12.13;5.73;;;;;;;;;;5003611;28;20267;-67
2022/07/17 03:19:37;;;;;;;9.23;5.05;;;;;;;;;;5001964;28;21020;-67
2022/07/17 03:22:02;;;;;;;9.20;4.80;;;;;;;;;;5000445;28;20260;-68
2022/07/17 03:24:28;;;;;;;8.60;4.25;;;;;;;;;;5004186;28;20100;-67
2022/07/17 03:26:53;;;;;;;14.55;4.60;;;;;;;;;;5004096;28;20022;-67
2022/07/17 03:29:18;;;;;;;17.50;5.35;;;;;;;;;;5000052;28;20048;-68
2022/07/17 03:31:44;;;;;;;13.15;5.35;;;;;;;;;;5000989;28;20460;-67
2022/07/17 03:34:09;;;;;;;15.02;5.80;;;;;;;;;;5000105;28;20032;-67
2022/07/17 03:36:34;;;;;;;13.18;5.70;;;;;;;;;;5002264;28;20018;-69
2022/07/17 03:38:59;;;;;;;12.00;6.17;;;;;;;;;;5002310;28;20044;-67
2022/07/17 03:41:25;;;;;;;11.97;4.87;;;;;;;;;;5001303;28;20279;-67
2022/07/17 03:43:51;;;;;;;11.93;4.78;;;;;;;;;;5003372;28;20274;-67
2022/07/17 03:46:16;;;;;;;9.40;4.88;;;;;;;;;;4998869;28;20034;-67
2022/07/17 03:48:41;;;;;;;11.27;5.05;;;;;;;;;;5001739;28;20029;-67
2022/07/17 03:51:06;;;;;;;14.00;5.47;;;;;;;;;;5002518;28;20464;-67
2022/07/17 03:53:31;;;;;;;15.63;5.63;;;;;;;;;;4997854;28;20286;-67
2022/07/17 03:55:56;;;;;;;9.20;5.27;;;;;;;;;;4998744;28;20602;-67
2022/07/17 03:58:22;;;;;;;11.20;5.25;;;;;;;;;;4999542;28;20269;-67
2022/07/17 04:00:47;;;;;;;13.20;5.07;;;;;;;;;;4997949;28;20018;-67
2022/07/17 04:03:12;;;;;;;13.50;5.73;;;;;;;;;;4997820;28;20282;-67
2022/07/17 04:05:37;;;;;;;13.70;5.60;;;;;;;;;;5001201;28;20265;-67
2022/07/17 04:08:02;;;;;;;12.77;6.07;;;;;;;;;;5000380;28;20271;-67
2022/07/17 04:10:28;;;;;;;11.77;5.45;;;;;;;;;;5000264;28;20120;-67
2022/07/17 04:12:53;;;;;;;11.45;4.88;;;;;;;;;;5000151;28;20018;-67
2022/07/17 04:15:49;;;;;;;15.43;5.30;;;;;;;;;;4999579;28;20026;-67
2022/07/17 04:18:03;;;;;;;18.48;6.45;;;;;;;;;;5000441;28;20045;-67
2022/07/17 04:20:28;;;;;;;19.00;6.80;;;;;;;;;;5002460;28;20026;-67
2022/07/17 04:22:54;;;;;;;14.30;6.13;;;;;;;;;;5001351;28;20789;-67
2022/07/17 04:25:19;;;;;;;18.92;7.07;;;;;;;;;;5006487;28;20033;-67
2022/07/17 04:27:44;;;;;;;12.53;5.87;;;;;;;;;;4998977;28;20778;-67
2022/07/17 04:30:09;;;;;;;20.23;6.20;;;;;;;;;;5002227;28;20275;-67
2022/07/17 04:32:35;;;;;;;16.23;5.78;;;;;;;;;;5015071;28;20313;-67
2022/07/17 04:35:00;;;;;;;18.80;6.00;;;;;;;;;;5002108;28;20029;-67
2022/07/17 04:37:25;;;;;;;15.90;5.68;;;;;;;;;;5000650;28;20034;-67
2022/07/17 04:39:50;;;;;;;22.57;6.90;;;;;;;;;;4997972;28;20387;-67
2022/07/17 04:42:15;;;;;;;15.75;6.20;;;;;;;;;;5000646;28;20267;-67
2022/07/17 04:44:40;;;;;;;11.05;5.53;;;;;;;;;;5002815;28;20483;-67
2022/07/17 04:47:06;;;;;;;17.17;6.50;;;;;;;;;;4998016;28;20075;-67
2022/07/17 04:49:31;;;;;;;16.58;6.65;;;;;;;;;;5002761;28;20290;-67
2022/07/17 04:51:56;;;;;;;15.23;6.35;;;;;;;;;;5006374;28;20421;-67
2022/07/17 04:54:21;;;;;;;20.08;6.70;;;;;;;;;;5003627;28;20021;-67
2022/07/17 04:56:46;;;;;;;14.93;6.88;;;;;;;;;;5001465;28;20226;-67
2022/07/17 04:59:11;;;;;;;17.70;6.28;;;;;;;;;;5000137;28;20053;-67
2022/07/17 05:01:37;;;;;;;13.65;6.20;;;;;;;;;;5003709;28;20020;-67
2022/07/17 05:04:02;;;;;;;18.33;8.57;;;;;;;;;;4996817;28;20480;-67
2022/07/17 05:06:27;;;;;;;21.15;7.35;;;;;;;;;;5001226;28;20275;-67
2022/07/17 05:08:52;;;;;;;15.77;7.20;;;;;;;;;;5006280;28;20376;-67
2022/07/17 05:11:17;;;;;;;17.45;7.65;;;;;;;;;;4996213;28;20276;-67
2022/07/17 05:13:43;;;;;;;26.33;8.57;;;;;;;;;;4991032;28;20453;-67
2022/07/17 05:16:08;;;;;;;23.60;8.27;;;;;;;;;;5005541;28;20263;-67
2022/07/17 05:18:33;;;;;;;18.33;7.65;;;;;;;;;;5000716;28;20511;-67
2022/07/17 05:20:58;;;;;;;18.17;7.68;;;;;;;;;;5006027;28;20018;-67
2022/07/17 05:23:24;;;;;;;25.67;7.45;;;;;;;;;;5003252;28;20025;-67
2022/07/17 05:25:49;;;;;;;20.43;7.80;;;;;;;;;;5006299;28;20432;-67
2022/07/17 05:28:14;;;;;;;30.33;9.70;;;;;;;;;;5009142;28;20263;-67
2022/07/17 05:30:39;;;;;;;28.27;8.87;;;;;;;;;;5007991;28;20503;-67
2022/07/17 05:33:04;;;;;;;30.88;9.63;;;;;;;;;;5002953;28;20295;-67
2022/07/17 05:35:31;;;;;;;30.63;9.40;;;;;;;;;;5008285;28;20037;-67
2022/07/17 05:37:56;;;;;;;28.85;8.82;;;;;;;;;;5000856;28;20260;-67
2022/07/17 05:40:21;;;;;;;25.15;8.13;;;;;;;;;;5000413;28;20014;-67
2022/07/17 05:42:46;;;;;;;30.55;8.82;;;;;;;;;;4999549;28;20120;-67
2022/07/17 05:45:12;;;;;;;28.80;8.02;;;;;;;;;;4997440;28;20025;-67
2022/07/17 05:47:37;;;;;;;30.05;7.63;;;;;;;;;;5000567;28;20026;-67
2022/07/17 05:50:02;;;;;;;35.33;8.23;;;;;;;;;;5003958;28;20468;-67
2022/07/17 05:52:28;;;;;;;23.60;8.35;;;;;;;;;;5003901;28;20022;-67
2022/07/17 05:54:53;;;;;;;27.07;7.60;;;;;;;;;;4998494;28;20052;-67
2022/07/17 05:57:18;;;;;;;31.80;8.40;;;;;;;;;;4996002;28;20596;-68
2022/07/17 05:59:43;;;;;;;25.15;8.38;;;;;;;;;;5000612;28;20267;-68
2022/07/17 06:02:08;;;;;;;25.27;7.78;;;;;;;;;;4999446;28;20022;-67
2022/07/17 06:04:33;;;;;;;32.92;8.18;;;;;;;;;;4999546;28;20029;-67
2022/07/17 06:06:59;;;;;;;26.88;7.53;;;;;;;;;;4997151;28;20034;-68
2022/07/17 06:09:24;;;;;;;22.47;8.57;;;;;;;;;;4999727;28;20350;-67
2022/07/17 06:11:49;;;;;;;22.00;5.97;;;;;;;;;;4997753;28;20847;-67
2022/07/17 06:14:14;;;;;;;23.33;6.40;;;;;;;;;;4997108;28;20295;-68
2022/07/17 06:16:39;;;;;;;20.40;6.27;;;;;;;;;;5000821;28;20048;-67
2022/07/17 06:19:04;;;;;;;22.23;6.70;;;;;;;;;;5000745;28;20026;-67
2022/07/17 06:21:30;;;;;;;17.80;5.23;;;;;;;;;;5001400;28;20420;-67
2022/07/17 06:23:55;;;;;;;16.42;4.43;;;;;;;;;;5001596;28;20302;-67
2022/07/17 06:26:20;;;;;;;12.67;4.40;;;;;;;;;;4998285;28;20033;-67
2022/07/17 06:28:45;;;;;;;28.53;5.27;;;;;;;;;;5002871;28;20271;-67
2022/07/17 06:31:11;;;;;;;12.65;4.47;;;;;;;;;;5000565;28;20371;-68
2022/07/17 06:33:36;;;;;;;14.27;4.05;;;;;;;;;;5005621;28;20433;-68
2022/07/17 06:36:02;;;;;;;16.67;4.18;;;;;;;;;;4998613;28;20407;-68
2022/07/17 06:38:27;;;;;;;14.05;4.18;;;;;;;;;;5007735;28;20022;-68
2022/07/17 06:40:52;;;;;;;12.47;3.40;;;;;;;;;;5006713;28;20036;-67
2022/07/17 06:43:17;;;;;;;15.27;3.53;;;;;;;;;;5007834;28;20029;-67
2022/07/17 06:45:42;;;;;;;11.77;3.33;;;;;;;;;;5004546;28;20028;-67
2022/07/17 06:48:08;;;;;;;10.15;3.30;;;;;;;;;;5006811;28;20395;-70
2022/07/17 06:50:34;;;;;;;9.73;2.65;;;;;;;;;;5003570;28;20029;-68
2022/07/17 06:52:59;;;;;;;15.27;2.80;;;;;;;;;;5004561;28;20030;-67
2022/07/17 06:55:24;;;;;;;16.05;3.33;;;;;;;;;;5008219;28;20491;-68
2022/07/17 06:57:49;;;;;;;10.32;2.92;;;;;;;;;;5005919;28;20077;-68
2022/07/17 07:00:15;;;;;;;8.98;2.78;;;;;;;;;;5004358;28;20022;-67
2022/07/17 07:02:40;;;;;;;15.70;2.95;;;;;;;;;;5002863;28;20080;-68
2022/07/17 07:05:05;;;;;;;13.60;3.90;;;;;;;;;;5004483;28;20712;-68
2022/07/17 07:07:30;;;;;;;7.53;3.03;;;;;;;;;;5007891;28;20268;-68
2022/07/17 07:09:56;;;;;;;7.80;3.00;;;;;;;;;;5008815;28;20376;-68
2022/07/17 07:12:21;;;;;;;12.90;3.20;;;;;;;;;;5006267;28;20325;-68
2022/07/17 07:14:46;;;;;;;13.37;3.20;;;;;;;;;;5012802;28;20132;-68
2022/07/17 07:17:11;;;;;;;15.30;3.00;;;;;;;;;;5001567;28;20073;-68
2022/07/17 07:19:36;;;;;;;14.25;4.00;;;;;;;;;;5004795;28;20338;-68
2022/07/17 07:22:02;;;;;;;16.42;3.35;;;;;;;;;;5002582;28;20475;-68
2022/07/17 07:24:27;;;;;;;17.70;3.70;;;;;;;;;;4998656;28;20404;-69
2022/07/17 07:26:52;;;;;;;10.93;3.00;;;;;;;;;;5008956;28;20278;-68
2022/07/17 07:29:17;;;;;;;11.68;3.13;;;;;;;;;;5004243;28;20030;-68
2022/07/17 07:31:42;;;;;;;16.97;3.83;;;;;;;;;;5006456;28;20056;-68
2022/07/17 07:34:07;;;;;;;12.85;3.97;;;;;;;;;;5006792;28;20271;-68
2022/07/17 07:36:32;;;;;;;11.37;3.07;;;;;;;;;;5002718;28;20068;-68
2022/07/17 07:38:58;;;;;;;12.10;3.33;;;;;;;;;;5000834;28;20352;-69
2022/07/17 07:41:23;;;;;;;13.80;3.63;;;;;;;;;;5004050;28;20752;-68
2022/07/17 07:43:48;;;;;;;16.67;3.63;;;;;;;;;;4998700;28;20030;-69
2022/07/17 07:46:13;;;;;;;16.52;3.75;;;;;;;;;;4995813;28;20274;-68
2022/07/17 07:48:39;;;;;;;12.75;3.33;;;;;;;;;;4999156;28;20144;-68
2022/07/17 07:51:04;;;;;;;21.67;4.45;;;;;;;;;;4999311;28;20038;-68
2022/07/17 07:53:29;;;;;;;18.50;4.63;;;;;;;;;;5001215;28;20537;-68
2022/07/17 07:55:54;;;;;;;14.07;3.17;;;;;;;;;;4996773;28;20018;-67
2022/07/17 07:58:19;;;;;;;19.00;3.72;;;;;;;;;;5006582;28;20109;-67
2022/07/17 08:00:45;;;;;;;13.68;4.00;;;;;;;;;;5001485;28;20030;-68
2022/07/17 08:03:10;;;;;;;13.95;4.28;;;;;;;;;;5001553;28;20065;-68
2022/07/17 08:05:36;;;;;;;19.67;4.65;;;;;;;;;;4998642;28;20065;-68
2022/07/17 08:08:01;;;;;;;14.68;3.83;;;;;;;;;;4998015;28;20112;-67
2022/07/17 08:10:27;;;;;;;21.02;4.03;;;;;;;;;;5002470;28;20026;-68
2022/07/17 08:12:52;;;;;;;16.52;2.80;;;;;;;;;;5000469;28;20473;-66
2022/07/17 08:15:18;;;;;;;19.27;3.30;;;;;;;;;;5000210;28;20021;-67
2022/07/17 08:17:44;;;;;;;13.10;3.17;;;;;;;;;;5001235;28;20272;-68
2022/07/17 08:20:10;;;;;;;14.85;3.15;;;;;;;;;;5000873;28;20482;-67
2022/07/17 08:22:35;;;;;;;26.13;4.50;;;;;;;;;;5002902;28;20032;-68
2022/07/17 08:25:00;;;;;;;15.87;3.87;;;;;;;;;;5000443;28;20041;-67
2022/07/17 08:27:25;;;;;;;17.90;3.78;;;;;;;;;;5000498;28;20099;-67
2022/07/17 08:29:51;;;;;;;15.23;3.03;;;;;;;;;;5000768;28;20033;-66
2022/07/17 08:32:16;;;;;;;17.17;3.57;;;;;;;;;;4999413;28;20025;-67
2022/07/17 08:34:41;;;;;;;19.75;3.33;;;;;;;;;;4998022;28;20036;-67
2022/07/17 08:37:06;;;;;;;13.85;3.20;;;;;;;;;;5001549;28;20421;-67
2022/07/17 08:39:31;;;;;;;12.80;3.57;;;;;;;;;;5004894;28;20034;-67
2022/07/17 08:41:56;;;;;;;14.65;3.40;;;;;;;;;;4995966;28;20491;-67
2022/07/17 08:44:21;;;;;;;20.13;4.10;;;;;;;;;;5002435;28;20077;-67
2022/07/17 08:46:47;;;;;;;14.77;3.87;;;;;;;;;;5001491;28;20814;-67
2022/07/17 08:49:13;;;;;;;15.25;3.83;;;;;;;;;;5003737;28;20040;-67
2022/07/17 08:51:38;;;;;;;23.30;3.80;;;;;;;;;;5002603;28;20099;-67
2022/07/17 08:54:03;;;;;;;12.68;3.33;;;;;;;;;;4997814;28;20045;-67
2022/07/17 08:56:29;;;;;;;17.13;3.63;;;;;;;;;;4994798;28;20466;-67
2022/07/17 08:58:55;;;;;;;14.88;3.50;;;;;;;;;;4994789;28;20017;-67
2022/07/17 09:01:20;;;;;;;11.20;3.25;;;;;;;;;;4997970;28;20134;-67
2022/07/17 09:04:12;;;;;;;11.43;2.97;;;;;;;;;;4997551;28;20524;-67
2022/07/17 09:06:37;;;;;;;20.25;4.60;;;;;;;;;;4993115;28;20033;-68
2022/07/17 09:09:11;;;;;;;19.95;3.63;;;;;;;;;;4999109;28;20048;-67
2022/07/17 09:11:36;;;;;;;;;;;;;;;;;;4998226;28;20054;-67
2022/07/17 09:14:01;;;;;;;19.05;4.18;;;;;;;;;;4998755;28;20067;-68
2022/07/17 09:16:26;;;;;;;11.37;3.20;;;;;;;;;;5001041;28;20023;-67
2022/07/17 09:18:57;;;;;;;13.95;3.08;;;;;;;;;;4998159;28;20041;-67
2022/07/17 09:21:24;;;;;;;16.10;3.35;;;;;;;;;;4996419;28;20014;-67
2022/07/17 09:23:57;;;;;;;16.00;4.47;;;;;;;;;;4999817;28;20030;-67
2022/07/17 09:26:22;;;;;;;30.02;4.50;;;;;;;;;;4998687;28;20025;-67
2022/07/17 09:28:47;;;;;;;23.13;3.63;;;;;;;;;;4995518;28;20030;-68
2022/07/17 09:31:23;;;;;;;20.70;3.43;;;;;;;;;;4995926;28;20033;-67
2022/07/17 09:33:48;;;;;;;20.02;3.22;;;;;;;;;;5001236;28;20480;-67
2022/07/17 09:36:13;;;;;;;12.50;3.20;;;;;;;;;;5001099;28;20109;-68
2022/07/17 09:38:39;;;;;;;16.30;3.47;;;;;;;;;;4996245;28;20026;-67
2022/07/17 09:41:11;;;;;;;10.55;3.00;;;;;;;;;;5000033;28;20053;-67
2022/07/17 09:43:42;;;;;;;16.58;3.53;;;;;;;;;;5001053;28;20101;-67
2022/07/17 09:46:07;;;;;;;25.02;3.40;;;;;;;;;;5001102;28;20121;-67
2022/07/17 09:48:33;;;;;;;15.38;3.25;;;;;;;;;;4997895;28;20042;-67
2022/07/17 09:50:58;;;;;;;17.25;2.78;;;;;;;;;;4998595;28;20030;-67
2022/07/17 09:53:24;;;;;;;12.43;3.40;;;;;;;;;;5003770;28;20033;-66
2022/07/17 09:55:50;;;;;;;11.73;2.90;;;;;;;;;;4996818;28;20064;-67
2022/07/17 09:58:19;;;;;;;11.30;3.05;;;;;;;;;;4996329;28;20033;-68
2022/07/17 10:00:44;;;;;;;19.13;3.83;;;;;;;;;;4996992;28;20025;-67
2022/07/17 10:03:10;;;;;;;17.13;3.03;;;;;;;;;;5003675;28;20018;-67
2022/07/17 10:05:35;;;;;;;14.63;2.97;;;;;;;;;;4996705;28;20062;-67
2022/07/17 10:08:01;;;;;;;13.30;3.03;;;;;;;;;;5002026;28;20034;-67
2022/07/17 10:10:26;;;;;;;17.27;3.20;;;;;;;;;;5001485;28;20030;-67
2022/07/17 10:12:52;;;;;;;18.88;3.40;;;;;;;;;;4999940;28;20167;-67
2022/07/17 10:15:17;;;;;;;15.13;4.10;;;;;;;;;;4999850;28;20017;-67
2022/07/17 10:17:43;;;;;;;19.33;3.25;;;;;;;;;;5004062;28;20079;-67
2022/07/17 10:20:09;;;;;;;7.72;2.92;;;;;;;;;;5004842;28;20576;-67
2022/07/17 10:22:41;;;;;;;16.45;4.05;;;;;;;;;;5004899;28;20104;-67
2022/07/17 10:25:07;;;;;;;22.85;4.15;;;;;;;;;;5020794;28;20451;-67
2022/07/17 10:27:35;;;;;;;13.27;3.70;;;;;;;;;;5003975;28;20056;-67
2022/07/17 10:30:02;;;;;;;19.88;3.63;;;;;;;;;;5003938;28;20096;-67
2022/07/17 10:32:27;;;;;;;11.15;3.05;;;;;;;;;;5003454;28;20037;-67
2022/07/17 10:34:58;;;;;;;18.48;4.07;;;;;;;;;;5005871;28;20057;-67
2022/07/17 10:37:25;;;;;;;11.77;2.58;;;;;;;;;;5001845;28;20022;-67
2022/07/17 10:39:54;;;;;;;13.35;3.17;;;;;;;;;;5004088;28;20022;-67
2022/07/17 10:42:38;;;;;;;12.07;3.80;;;;;;;;;;5001569;28;20026;-67
2022/07/17 10:45:03;;;;;;;;;;;;;;;;;;4997518;28;20392;-66
2022/07/17 10:47:28;;;;;;;;;;;;;;;;;;5003975;28;20284;-67
2022/07/17 10:49:53;;;;;;;;;;;;;;;;;;5006147;28;20367;-67
2022/07/17 10:52:18;;;;;;;;;;;;;;;;;;5000983;28;19913;-67
2022/07/17 10:54:43;;;;;;;;;;;;;;;;;;5000092;28;19913;-67
2022/07/17 10:57:08;;;;;;;;;;;;;;;;;;5004945;28;20004;-67
2022/07/17 10:59:33;;;;;;;;;;;;;;;;;;5006578;28;19913;-67
2022/07/17 11:01:59;;;;;;;;;;;;;;;;;;4997237;28;20271;-67
2022/07/17 11:04:24;;;;;;;;;;;;;;;;;;5005302;28;19921;-67
2022/07/17 11:06:49;;;;;;;;;;;;;;;;;;5004886;28;19991;-67
2022/07/17 11:09:14;;;;;;;;;;;;;;;;;;5005863;28;20272;-67
2022/07/17 11:11:39;;;;;;;;;;;;;;;;;;4999698;28;20015;-68
2022/07/17 11:14:04;;;;;;;;;;;;;;;;;;5004425;28;20270;-67
2022/07/17 11:16:29;;;;;;;;;;;;;;;;;;5003111;28;20024;-67
2022/07/17 11:18:55;;;;;;;;;;;;;;;;;;5003968;28;19936;-67
2022/07/17 11:21:20;;;;;;;;;;;;;;;;;;4999099;28;19913;-67
2022/07/17 11:23:45;;;;;;;;;;;;;;;;;;5003572;28;19963;-67
2022/07/17 11:26:10;;;;;;;;;;;;;;;;;;5003422;28;20275;-68
2022/07/17 11:28:35;;;;;;;;;;;;;;;;;;5000560;28;19984;-67
2022/07/17 11:31:00;;;;;;;;;;;;;;;;;;5002810;28;19913;-67
2022/07/17 11:33:25;;;;;;;;;;;;;;;;;;5001847;28;19917;-67
2022/07/17 11:35:51;;;;;;;;;;;;;;;;;;4998860;28;19917;-67
2022/07/17 11:38:16;;;;;;;;;;;;;;;;;;4998919;28;20382;-67
2022/07/17 11:40:41;;;;;;;;;;;;;;;;;;5001716;28;21104;-68
2022/07/17 11:43:07;;;;;;;;;;;;;;;;;;4998479;28;20364;-67
2022/07/17 11:45:32;;;;;;;;;;;;;;;;;;4998850;28;20012;-67
2022/07/17 11:47:57;;;;;;;;;;;;;;;;;;5002986;28;19939;-69
2022/07/17 11:50:22;;;;;;;;;;;;;;;;;;5002378;28;19936;-68
2022/07/17 11:52:51;;;;;;;;;;;;;;;;;;5001098;28;20395;-70
2022/07/17 11:55:16;;;;;;;;;;;;;;;;;;5004528;28;20410;-69
2022/07/17 11:57:41;;;;;;;;;;;;;;;;;;5002252;28;19964;-68
2022/07/17 12:00:06;;;;;;;;;;;;;;;;;;5003131;28;20279;-67
2022/07/17 12:02:31;;;;;;;;;;;;;;;;;;5002266;28;20330;-68
2022/07/17 12:04:56;;;;;;;;;;;;;;;;;;5006309;28;20015;-66
2022/07/17 12:07:21;;;;;;;;;;;;;;;;;;5006109;28;20334;-65
2022/07/17 12:09:46;;;;;;;;;;;;;;;;;;5001130;28;19914;-65
2022/07/17 12:12:12;;;;;;;;;;;;;;;;;;5003898;28;19925;-66
2022/07/17 12:14:37;;;;;;;;;;;;;;;;;;5006345;28;19924;-65
2022/07/17 12:17:02;;;;;;;;;;;;;;;;;;5005559;28;19917;-66
2022/07/17 12:19:27;;;;;;;;;;;;;;;;;;5006821;28;20000;-66
2022/07/17 12:21:53;;;;;;;;;;;;;;;;;;5004288;28;19940;-66
2022/07/17 12:24:18;;;;;;;;;;;;;;;;;;5006342;28;19909;-66
2022/07/17 12:26:43;;;;;;;;;;;;;;;;;;4999145;28;20382;-67
2022/07/17 12:29:09;;;;;;;;;;;;;;;;;;5014309;28;19920;-67
2022/07/17 12:31:34;;;;;;;;;;;;;;;;;;5013983;28;20004;-69
2022/07/17 12:33:59;;;;;;;;;;;;;;;;;;5009627;28;20383;-67
2022/07/17 12:36:24;;;;;;;;;;;;;;;;;;5007959;28;20358;-66
2022/07/17 12:38:49;;;;;;;;;;;;;;;;;;5005294;28;19992;-66
2022/07/17 12:41:14;;;;;;;;;;;;;;;;;;4998325;28;19968;-66
2022/07/17 12:43:40;;;;;;;;;;;;;;;;;;4998466;28;19991;-66
2022/07/17 12:46:05;;;;;;;;;;;;;;;;;;4997932;28;19951;-66
2022/07/17 12:48:30;;;;;;;;;;;;;;;;;;5001171;28;19932;-67
2022/07/17 12:50:55;;;;;;;;;;;;;;;;;;4999185;28;20339;-66
2022/07/17 12:53:20;;;;;;;;;;;;;;;;;;4998810;28;20252;-66
2022/07/17 12:55:45;;;;;;;;;;;;;;;;;;5002828;28;20807;-66
2022/07/17 12:58:10;;;;;;;;;;;;;;;;;;5003428;28;20004;-66
2022/07/17 13:00:35;;;;;;;;;;;;;;;;;;5000512;28;19928;-66
2022/07/17 13:03:00;;;;;;;;;;;;;;;;;;4999287;28;19940;-66
2022/07/17 13:05:25;;;;;;;;;;;;;;;;;;5001849;28;19937;-66
2022/07/17 13:07:51;;;;;;;;;;;;;;;;;;5001064;28;19921;-66
2022/07/17 13:10:16;;;;;;;;;;;;;;;;;;5003188;28;20370;-65
2022/07/17 13:12:41;;;;;;;;;;;;;;;;;;5001242;28;19917;-66
2022/07/17 13:15:06;;;;;;;;;;;;;;;;;;5000045;28;19914;-71
2022/07/17 13:17:31;;;;;;;;;;;;;;;;;;4998291;28;20000;-66
2022/07/17 13:19:56;;;;;;;;;;;;;;;;;;5000328;28;20324;-66
2022/07/17 13:22:21;;;;;;;;;;;;;;;;;;4996125;28;19913;-66
2022/07/17 13:24:46;;;;;;;;;;;;;;;;;;4995801;28;19953;-66
2022/07/17 13:27:11;;;;;;;;;;;;;;;;;;4994736;28;19913;-66
2022/07/17 13:29:37;;;;;;;;;;;;;;;;;;5002862;28;20299;-66
2022/07/17 13:32:02;;;;;;;;;;;;;;;;;;5002205;28;19913;-66
2022/07/17 13:34:27;;;;;;;;;;;;;;;;;;4996128;28;19936;-66
2022/07/17 13:36:52;;;;;;;;;;;;;;;;;;5003994;28;19918;-68
2022/07/17 13:39:17;;;;;;;;;;;;;;;;;;5001328;28;19917;-66
2022/07/17 13:41:42;;;;;;;;;;;;;;;;;;5001722;28;19914;-66
2022/07/17 13:44:07;;;;;;;;;;;;;;;;;;4997857;28;20395;-66
2022/07/17 13:46:32;;;;;;;;;;;;;;;;;;5002806;28;20387;-66
2022/07/17 13:48:58;;;;;;;;;;;;;;;;;;5006547;28;19921;-67
2022/07/17 13:51:23;;;;;;;;;;;;;;;;;;5003206;28;19920;-66
2022/07/17 13:53:48;;;;;;;;;;;;;;;;;;5005772;28;19953;-66
2022/07/17 13:56:13;;;;;;;;;;;;;;;;;;5001480;28;19920;-66
2022/07/17 13:58:38;;;;;;;;;;;;;;;;;;5003811;28;19976;-66
2022/07/17 14:01:03;;;;;;;;;;;;;;;;;;5003898;28;19913;-66
2022/07/17 14:03:28;;;;;;;;;;;;;;;;;;5006541;28;20000;-66
2022/07/17 14:05:54;;;;;;;;;;;;;;;;;;5005887;28;19913;-66
2022/07/17 14:08:19;;;;;;;;;;;;;;;;;;5005110;28;20371;-66
2022/07/17 14:10:44;;;;;;;;;;;;;;;;;;5005364;28;20264;-66
2022/07/17 14:13:09;;;;;;;;;;;;;;;;;;5003836;28;19917;-65
2022/07/17 14:15:34;;;;;;;;;;;;;;;;;;4996767;28;19913;-66
2022/07/17 14:17:59;;;;;;;;;;;;;;;;;;5008073;28;19909;-66
2022/07/17 14:20:24;;;;;;;;;;;;;;;;;;4999446;28;19949;-66
2022/07/17 14:22:49;;;;;;;;;;;;;;;;;;5005384;28;19980;-66
2022/07/17 14:25:14;;;;;;;;;;;;;;;;;;5007122;28;19960;-68
2022/07/17 14:27:39;;;;;;;;;;;;;;;;;;5009407;28;20235;-67
2022/07/17 14:30:04;;;;;;;;;;;;;;;;;;5008279;28;19920;-67
2022/07/17 14:32:29;;;;;;;;;;;;;;;;;;5005698;28;20380;-66
2022/07/17 14:34:55;;;;;;;;;;;;;;;;;;5024469;28;20315;-66
2022/07/17 14:37:20;;;;;;;;;;;;;;;;;;5007755;28;19920;-67
2022/07/17 14:39:45;;;;;;;;;;;;;;;;;;5004411;28;19920;-67
2022/07/17 14:42:10;;;;;;;;;;;;;;;;;;5003921;28;20338;-67
2022/07/17 14:44:35;;;;;;;;;;;;;;;;;;5007984;28;19917;-67
2022/07/17 14:47:00;;;;;;;;;;;;;;;;;;5004447;28;20032;-69
2022/07/17 14:49:25;;;;;;;;;;;;;;;;;;5003774;28;19909;-69
2022/07/17 14:51:50;;;;;;;;;;;;;;;;;;5002186;28;20229;-67
2022/07/17 14:54:16;;;;;;;;;;;;;;;;;;5004347;28;19939;-67